Time;durP1;ratioP1;P1;durP2;ratioP2;P2;SDS_P1;SDS_P2;PMS_P1;PMS_P2;Temp;Humidity;BMP_temperature;BMP_pressure;BME280_temperature;BME280_humidity;BME280_pressure;Samples;Min_cycle;Max_cycle;Signal;HPM_P1;HPM_P2
2023/07/24 00:01:59;;;;;;;4.05;2.60;;;;;;;;;;5033102;28;20045;-77
2023/07/24 00:04:26;;;;;;;4.80;2.70;;;;;;;;;;5032628;28;20049;-76
2023/07/24 00:06:54;;;;;;;3.45;2.70;;;;;;;;;;5032616;28;20049;-76
2023/07/24 00:09:21;;;;;;;2.92;2.30;;;;;;;;;;5032672;28;20064;-76
2023/07/24 00:11:48;;;;;;;4.70;2.83;;;;;;;;;;5032556;28;20061;-76
2023/07/24 00:14:15;;;;;;;4.45;3.20;;;;;;;;;;5031998;28;20065;-76
2023/07/24 00:16:42;;;;;;;4.28;2.47;;;;;;;;;;5032791;28;20058;-77
2023/07/24 00:19:10;;;;;;;4.32;2.80;;;;;;;;;;5031012;28;20049;-77
2023/07/24 00:21:37;;;;;;;3.10;2.60;;;;;;;;;;5026148;28;20068;-76
2023/07/24 00:24:04;;;;;;;3.58;2.63;;;;;;;;;;5012595;28;20054;-75
2023/07/24 00:26:31;;;;;;;3.92;2.20;;;;;;;;;;5012552;28;20061;-76
2023/07/24 00:28:58;;;;;;;3.38;2.65;;;;;;;;;;5012288;28;20157;-76
2023/07/24 00:31:24;;;;;;;3.47;2.28;;;;;;;;;;5014846;28;20064;-76
2023/07/24 00:33:51;;;;;;;3.72;2.17;;;;;;;;;;5032419;28;20056;-76
2023/07/24 00:36:19;;;;;;;3.53;2.60;;;;;;;;;;5032415;28;20065;-76
2023/07/24 00:38:46;;;;;;;3.75;2.53;;;;;;;;;;5032706;28;20483;-76
2023/07/24 00:41:13;;;;;;;2.70;2.40;;;;;;;;;;5032446;28;20402;-76
2023/07/24 00:43:41;;;;;;;2.42;2.22;;;;;;;;;;5032104;28;20054;-76
2023/07/24 00:46:07;;;;;;;4.80;2.15;;;;;;;;;;5032491;28;20049;-75
2023/07/24 00:48:34;;;;;;;3.88;2.47;;;;;;;;;;5032006;28;20069;-76
2023/07/24 00:51:01;;;;;;;3.13;2.03;;;;;;;;;;5032101;28;20060;-76
2023/07/24 00:53:29;;;;;;;3.72;2.10;;;;;;;;;;5032145;28;20056;-76
2023/07/24 00:55:56;;;;;;;3.50;2.50;;;;;;;;;;5031937;28;20064;-76
2023/07/24 00:58:23;;;;;;;3.28;2.20;;;;;;;;;;5034294;28;20057;-76
2023/07/24 01:00:50;;;;;;;3.85;2.47;;;;;;;;;;5036291;28;20064;-78
2023/07/24 01:03:17;;;;;;;3.33;2.20;;;;;;;;;;5036022;28;20430;-78
2023/07/24 01:05:44;;;;;;;2.67;2.13;;;;;;;;;;5035782;28;20053;-78
2023/07/24 01:08:11;;;;;;;3.20;2.40;;;;;;;;;;5035796;28;20076;-78
2023/07/24 01:10:39;;;;;;;4.10;2.47;;;;;;;;;;5035490;28;20149;-78
2023/07/24 01:13:09;;;;;;;3.08;1.90;;;;;;;;;;5035335;28;20067;-78
2023/07/24 01:15:38;;;;;;;3.65;2.45;;;;;;;;;;5035456;28;20057;-78
2023/07/24 01:18:08;;;;;;;3.20;2.15;;;;;;;;;;5035333;28;20049;-78
2023/07/24 01:20:36;;;;;;;3.95;2.42;;;;;;;;;;5035540;28;20049;-78
2023/07/24 01:23:07;;;;;;;2.80;2.00;;;;;;;;;;5035556;28;20049;-78
2023/07/24 01:25:36;;;;;;;4.43;2.45;;;;;;;;;;5035370;28;20480;-78
2023/07/24 01:28:08;;;;;;;4.93;2.60;;;;;;;;;;5035241;28;20406;-78
2023/07/24 01:30:35;;;;;;;2.95;2.50;;;;;;;;;;5035610;28;20061;-78
2023/07/24 01:33:02;;;;;;;3.15;2.25;;;;;;;;;;5035190;28;20414;-78
2023/07/24 01:35:30;;;;;;;3.28;2.22;;;;;;;;;;5035176;28;20065;-79
2023/07/24 01:37:58;;;;;;;4.20;2.58;;;;;;;;;;5035274;28;20056;-79
2023/07/24 01:40:25;;;;;;;2.72;2.17;;;;;;;;;;5034769;28;20053;-78
2023/07/24 01:42:52;;;;;;;3.17;2.30;;;;;;;;;;5035053;28;20411;-79
2023/07/24 01:45:20;;;;;;;3.88;2.22;;;;;;;;;;5034982;28;20056;-78
2023/07/24 01:47:47;;;;;;;3.20;2.30;;;;;;;;;;5034547;28;20075;-78
2023/07/24 01:50:13;;;;;;;3.15;2.53;;;;;;;;;;5034470;28;20061;-78
2023/07/24 01:52:40;;;;;;;3.80;2.70;;;;;;;;;;5035008;28;20060;-78
2023/07/24 01:55:08;;;;;;;4.57;2.65;;;;;;;;;;5035045;28;20058;-78
2023/07/24 01:57:35;;;;;;;3.80;2.50;;;;;;;;;;5034860;28;20061;-78
2023/07/24 02:00:02;;;;;;;3.15;2.65;;;;;;;;;;5034610;28;20056;-78
2023/07/24 02:02:30;;;;;;;4.03;2.97;;;;;;;;;;5034706;28;20050;-78
2023/07/24 02:04:57;;;;;;;4.72;2.80;;;;;;;;;;5034629;28;20060;-79
2023/07/24 02:07:24;;;;;;;6.50;2.92;;;;;;;;;;5034679;28;20061;-78
2023/07/24 02:09:50;;;;;;;3.50;3.10;;;;;;;;;;5034241;28;20053;-79
2023/07/24 02:12:17;;;;;;;5.63;3.55;;;;;;;;;;5034729;28;20061;-79
2023/07/24 02:14:44;;;;;;;4.55;3.50;;;;;;;;;;5034337;28;20398;-78
2023/07/24 02:17:11;;;;;;;4.05;3.22;;;;;;;;;;5034399;28;20395;-79
2023/07/24 02:19:39;;;;;;;4.45;2.92;;;;;;;;;;5034234;28;20354;-79
2023/07/24 02:22:06;;;;;;;4.80;2.90;;;;;;;;;;5033884;28;20060;-78
2023/07/24 02:24:32;;;;;;;3.80;3.28;;;;;;;;;;5034180;28;20064;-79
2023/07/24 02:26:59;;;;;;;3.15;2.72;;;;;;;;;;5034218;28;20053;-78
2023/07/24 02:29:26;;;;;;;5.93;3.35;;;;;;;;;;5034148;28;20490;-78
2023/07/24 02:31:54;;;;;;;4.25;3.17;;;;;;;;;;5034478;28;20478;-78
2023/07/24 02:34:24;;;;;;;5.30;2.92;;;;;;;;;;5034211;28;20049;-78
2023/07/24 02:36:52;;;;;;;3.63;2.70;;;;;;;;;;5034101;28;20050;-78
2023/07/24 02:39:18;;;;;;;4.10;2.90;;;;;;;;;;5033559;28;20121;-78
2023/07/24 02:41:46;;;;;;;3.03;2.35;;;;;;;;;;5033166;28;20410;-79
2023/07/24 02:44:13;;;;;;;3.47;2.85;;;;;;;;;;5033585;28;20417;-78
2023/07/24 02:46:39;;;;;;;4.28;3.00;;;;;;;;;;5033849;28;20057;-79
2023/07/24 02:49:06;;;;;;;4.32;2.75;;;;;;;;;;5033231;28;20507;-78
2023/07/24 02:51:33;;;;;;;4.05;2.90;;;;;;;;;;5034347;28;20076;-78
2023/07/24 02:54:01;;;;;;;3.80;2.63;;;;;;;;;;5033560;28;20414;-78
2023/07/24 02:56:28;;;;;;;3.33;2.88;;;;;;;;;;5033606;28;20088;-79
2023/07/24 02:58:55;;;;;;;4.63;3.30;;;;;;;;;;5033784;28;20076;-79
2023/07/24 03:01:21;;;;;;;5.85;3.53;;;;;;;;;;5033671;28;20053;-79
2023/07/24 03:03:49;;;;;;;3.58;2.92;;;;;;;;;;5033400;28;20061;-78
2023/07/24 03:06:16;;;;;;;3.63;3.03;;;;;;;;;;5033460;28;20488;-79
2023/07/24 03:08:42;;;;;;;4.70;3.13;;;;;;;;;;5033559;28;20053;-79
2023/07/24 03:11:11;;;;;;;4.32;3.15;;;;;;;;;;5033226;28;20438;-79
2023/07/24 03:13:40;;;;;;;4.18;3.20;;;;;;;;;;5033639;28;20055;-78
2023/07/24 03:16:07;;;;;;;3.75;3.03;;;;;;;;;;5033577;28;20111;-79
2023/07/24 03:18:34;;;;;;;3.50;2.65;;;;;;;;;;5033605;28;20053;-78
2023/07/24 03:21:01;;;;;;;3.88;2.85;;;;;;;;;;5032778;28;20065;-78
2023/07/24 03:23:27;;;;;;;4.38;2.90;;;;;;;;;;5033277;28;20061;-78
2023/07/24 03:25:54;;;;;;;8.85;4.53;;;;;;;;;;5033120;28;20053;-78
2023/07/24 03:28:22;;;;;;;6.65;4.47;;;;;;;;;;5033101;28;20042;-78
2023/07/24 03:30:49;;;;;;;9.50;4.13;;;;;;;;;;5033309;28;20053;-79
2023/07/24 03:33:16;;;;;;;5.45;4.53;;;;;;;;;;5015127;28;20057;-79
2023/07/24 03:35:43;;;;;;;5.90;4.05;;;;;;;;;;5013000;28;20419;-79
2023/07/24 03:38:10;;;;;;;5.50;3.70;;;;;;;;;;5013199;28;20387;-79
2023/07/24 03:40:37;;;;;;;4.85;3.67;;;;;;;;;;5013294;28;20050;-79
2023/07/24 03:43:04;;;;;;;6.47;4.00;;;;;;;;;;5012936;28;20459;-78
2023/07/24 03:45:32;;;;;;;5.93;3.60;;;;;;;;;;5013122;28;20480;-79
2023/07/24 03:47:58;;;;;;;5.32;3.45;;;;;;;;;;5012559;28;20058;-79
2023/07/24 03:50:25;;;;;;;5.03;3.67;;;;;;;;;;5012723;28;20054;-79
2023/07/24 03:52:52;;;;;;;4.07;3.22;;;;;;;;;;5012790;28;20054;-80
2023/07/24 03:55:19;;;;;;;5.88;3.88;;;;;;;;;;5012902;28;20057;-79
2023/07/24 03:57:45;;;;;;;4.70;3.88;;;;;;;;;;5012548;28;20057;-79
2023/07/24 04:00:13;;;;;;;5.18;4.00;;;;;;;;;;5012270;28;20085;-79
2023/07/24 04:02:41;;;;;;;4.18;3.42;;;;;;;;;;5012709;28;20058;-79
2023/07/24 04:05:08;;;;;;;4.97;3.50;;;;;;;;;;5012372;28;20058;-79
2023/07/24 04:07:36;;;;;;;5.95;3.95;;;;;;;;;;5012435;28;20053;-79
2023/07/24 04:10:03;;;;;;;6.07;3.72;;;;;;;;;;5012028;28;20053;-79
2023/07/24 04:12:30;;;;;;;6.88;3.67;;;;;;;;;;5012639;28;20064;-79
2023/07/24 04:14:57;;;;;;;7.05;4.20;;;;;;;;;;5012461;28;20054;-79
2023/07/24 04:17:24;;;;;;;4.85;3.17;;;;;;;;;;5012603;28;20061;-80
2023/07/24 04:19:52;;;;;;;5.57;3.97;;;;;;;;;;5012233;28;20049;-80
2023/07/24 04:22:19;;;;;;;5.32;3.38;;;;;;;;;;5012629;28;20057;-79
2023/07/24 04:24:45;;;;;;;5.70;3.58;;;;;;;;;;5012653;28;20057;-79
2023/07/24 04:27:12;;;;;;;6.68;4.03;;;;;;;;;;5012669;28;20050;-79
2023/07/24 04:29:39;;;;;;;5.20;3.92;;;;;;;;;;5012193;28;20438;-80
2023/07/24 04:32:06;;;;;;;4.85;3.72;;;;;;;;;;5023073;28;20049;-80
2023/07/24 04:34:33;;;;;;;3.95;3.22;;;;;;;;;;5036141;28;20053;-80
2023/07/24 04:37:01;;;;;;;5.25;3.10;;;;;;;;;;5036538;28;20053;-79
2023/07/24 04:39:28;;;;;;;6.70;3.67;;;;;;;;;;5036091;28;20049;-79
2023/07/24 04:41:55;;;;;;;4.45;3.17;;;;;;;;;;5036405;28;20061;-79
2023/07/24 04:44:21;;;;;;;4.38;3.50;;;;;;;;;;5036423;28;20502;-80
2023/07/24 04:46:48;;;;;;;6.47;3.10;;;;;;;;;;5036278;28;20053;-79
2023/07/24 04:49:15;;;;;;;5.35;3.55;;;;;;;;;;5035688;28;20060;-80
2023/07/24 04:51:42;;;;;;;3.65;3.05;;;;;;;;;;5036187;28;20049;-79
2023/07/24 04:54:10;;;;;;;5.45;3.05;;;;;;;;;;5035974;28;20061;-79
2023/07/24 04:56:36;;;;;;;5.85;3.30;;;;;;;;;;5035966;28;20060;-79
2023/07/24 04:59:03;;;;;;;6.03;3.38;;;;;;;;;;5035679;28;20050;-79
2023/07/24 05:01:30;;;;;;;4.65;3.30;;;;;;;;;;5035939;28;20394;-79
2023/07/24 05:03:57;;;;;;;4.80;3.42;;;;;;;;;;5035791;28;20054;-79
2023/07/24 05:06:24;;;;;;;5.50;3.50;;;;;;;;;;5035666;28;20060;-79
2023/07/24 05:08:50;;;;;;;4.07;2.80;;;;;;;;;;5035937;28;20049;-79
2023/07/24 05:11:18;;;;;;;4.93;3.50;;;;;;;;;;5035652;28;20410;-80
2023/07/24 05:13:45;;;;;;;5.00;3.50;;;;;;;;;;5036244;28;20057;-79
2023/07/24 05:16:12;;;;;;;6.90;3.30;;;;;;;;;;5035458;28;20080;-79
2023/07/24 05:18:39;;;;;;;5.60;3.55;;;;;;;;;;5035323;28;20076;-80
2023/07/24 05:21:06;;;;;;;4.03;2.85;;;;;;;;;;5035724;28;20379;-79
2023/07/24 05:23:32;;;;;;;4.43;3.38;;;;;;;;;;5035162;28;20510;-79
2023/07/24 05:25:59;;;;;;;3.75;3.05;;;;;;;;;;5034912;28;20423;-79
2023/07/24 05:28:28;;;;;;;4.18;3.60;;;;;;;;;;5035296;28;20509;-79
2023/07/24 05:30:55;;;;;;;5.57;4.05;;;;;;;;;;5035317;28;20060;-79
2023/07/24 05:33:21;;;;;;;5.78;3.83;;;;;;;;;;5035127;28;20077;-79
2023/07/24 05:35:49;;;;;;;4.68;3.15;;;;;;;;;;5034966;28;20053;-80
2023/07/24 05:38:16;;;;;;;5.20;3.50;;;;;;;;;;5034820;28;20052;-79
2023/07/24 05:40:42;;;;;;;5.70;3.70;;;;;;;;;;5034847;28;20064;-80
2023/07/24 05:43:09;;;;;;;5.00;3.88;;;;;;;;;;5034488;28;20060;-80
2023/07/24 05:45:37;;;;;;;6.88;4.00;;;;;;;;;;5034844;28;20053;-80
2023/07/24 05:48:04;;;;;;;8.15;4.82;;;;;;;;;;5034193;28;20050;-80
2023/07/24 05:50:31;;;;;;;5.95;4.25;;;;;;;;;;5034480;28;20418;-80
2023/07/24 05:52:58;;;;;;;5.97;4.78;;;;;;;;;;5034719;28;20410;-79
2023/07/24 05:55:24;;;;;;;9.65;5.15;;;;;;;;;;5034641;28;20406;-80
2023/07/24 05:57:51;;;;;;;9.10;5.28;;;;;;;;;;5034495;28;20479;-79
2023/07/24 06:00:18;;;;;;;8.07;5.75;;;;;;;;;;5034683;28;20058;-79
2023/07/24 06:02:48;;;;;;;8.35;5.38;;;;;;;;;;5034966;28;20119;-80
2023/07/24 06:05:15;;;;;;;16.63;6.88;;;;;;;;;;5034646;28;20057;-79
2023/07/24 06:07:41;;;;;;;13.10;7.63;;;;;;;;;;5034635;28;20497;-79
2023/07/24 06:10:09;;;;;;;12.00;7.05;;;;;;;;;;5034274;28;20410;-79
2023/07/24 06:12:35;;;;;;;13.38;8.75;;;;;;;;;;5034337;28;20049;-79
2023/07/24 06:15:03;;;;;;;11.82;7.95;;;;;;;;;;5033980;28;20053;-79
2023/07/24 06:17:30;;;;;;;16.75;10.10;;;;;;;;;;5034240;28;20064;-79
2023/07/24 06:19:58;;;;;;;15.23;8.25;;;;;;;;;;5034252;28;20060;-79
2023/07/24 06:22:25;;;;;;;8.57;6.50;;;;;;;;;;5034166;28;20069;-79
2023/07/24 06:24:51;;;;;;;11.55;7.53;;;;;;;;;;5034277;28;20061;-79
2023/07/24 06:27:18;;;;;;;11.18;6.93;;;;;;;;;;5034370;28;20053;-79
2023/07/24 06:29:45;;;;;;;10.15;6.88;;;;;;;;;;5033688;28;20053;-79
2023/07/24 06:32:12;;;;;;;13.18;7.68;;;;;;;;;;5034221;28;20060;-79
2023/07/24 06:34:38;;;;;;;11.00;6.88;;;;;;;;;;5034391;28;20053;-79
2023/07/24 06:37:07;;;;;;;10.60;7.30;;;;;;;;;;5034246;28;20053;-78
2023/07/24 06:39:34;;;;;;;11.18;7.93;;;;;;;;;;5034133;28;20057;-79
2023/07/24 06:42:00;;;;;;;8.68;5.70;;;;;;;;;;5034280;28;20073;-79
2023/07/24 06:44:27;;;;;;;11.35;7.20;;;;;;;;;;5033977;28;20060;-78
2023/07/24 06:46:54;;;;;;;12.10;8.15;;;;;;;;;;5033601;28;20057;-79
2023/07/24 06:49:21;;;;;;;9.98;6.97;;;;;;;;;;5033510;28;20179;-78
2023/07/24 06:51:48;;;;;;;8.75;5.88;;;;;;;;;;5031279;28;20056;-79
2023/07/24 06:54:16;;;;;;;9.10;6.07;;;;;;;;;;5027225;28;20054;-79
2023/07/24 06:56:42;;;;;;;7.43;5.25;;;;;;;;;;5019665;28;20052;-79
2023/07/24 06:59:09;;;;;;;5.65;4.07;;;;;;;;;;5026656;28;20163;-81
2023/07/24 07:01:36;;;;;;;7.25;5.28;;;;;;;;;;5028506;28;20061;-80
2023/07/24 07:04:03;;;;;;;7.50;5.10;;;;;;;;;;5025865;28;20049;-79
2023/07/24 07:06:29;;;;;;;5.80;4.85;;;;;;;;;;5027584;28;20064;-82
2023/07/24 07:08:56;;;;;;;5.68;4.32;;;;;;;;;;5028486;28;20704;-82
2023/07/24 07:11:24;;;;;;;6.22;4.75;;;;;;;;;;5024501;28;20065;-82
2023/07/24 07:13:51;;;;;;;4.72;4.10;;;;;;;;;;5026865;28;20057;-81
2023/07/24 07:16:18;;;;;;;7.03;5.15;;;;;;;;;;5022702;28;20053;-81
2023/07/24 07:18:45;;;;;;;5.75;5.07;;;;;;;;;;5027835;28;20057;-81
2023/07/24 07:21:12;;;;;;;5.80;4.63;;;;;;;;;;5028093;28;20061;-84
2023/07/24 07:23:39;;;;;;;6.57;4.70;;;;;;;;;;5029180;28;20049;-84
2023/07/24 07:26:06;;;;;;;5.30;4.53;;;;;;;;;;5027396;28;20057;-83
2023/07/24 07:28:34;;;;;;;6.60;5.00;;;;;;;;;;5025604;28;20049;-83
2023/07/24 07:31:00;;;;;;;6.43;4.25;;;;;;;;;;5026644;28;20050;-83
2023/07/24 07:33:29;;;;;;;5.82;4.32;;;;;;;;;;5024933;28;20054;-83
2023/07/24 07:35:55;;;;;;;6.57;4.90;;;;;;;;;;5026518;28;20053;-82
2023/07/24 07:38:22;;;;;;;6.00;4.70;;;;;;;;;;5028972;28;20438;-82
2023/07/24 07:40:49;;;;;;;5.88;4.75;;;;;;;;;;5027751;28;20053;-83
2023/07/24 07:43:16;;;;;;;6.43;4.63;;;;;;;;;;5029749;28;20398;-83
2023/07/24 07:45:44;;;;;;;7.05;4.22;;;;;;;;;;5028973;28;20484;-83
2023/07/24 07:48:11;;;;;;;5.95;4.20;;;;;;;;;;5029922;28;20092;-82
2023/07/24 07:50:38;;;;;;;5.07;3.70;;;;;;;;;;5026974;28;20042;-82
2023/07/24 07:53:04;;;;;;;6.80;4.65;;;;;;;;;;5023879;28;20049;-82
2023/07/24 07:55:31;;;;;;;5.00;4.30;;;;;;;;;;5026365;28;20057;-83
2023/07/24 07:57:58;;;;;;;5.78;4.32;;;;;;;;;;5027808;28;20056;-83
2023/07/24 08:00:25;;;;;;;4.93;4.43;;;;;;;;;;5028440;28;20049;-83
2023/07/24 08:02:53;;;;;;;4.65;3.65;;;;;;;;;;5027244;28;20414;-81
2023/07/24 08:05:20;;;;;;;5.28;4.15;;;;;;;;;;5028135;28;20064;-82
2023/07/24 08:07:47;;;;;;;4.57;4.18;;;;;;;;;;5027460;28;20052;-80
2023/07/24 08:10:14;;;;;;;6.28;3.92;;;;;;;;;;5030494;28;20398;-81
2023/07/24 08:12:41;;;;;;;5.55;3.97;;;;;;;;;;5028073;28;20073;-82
2023/07/24 08:15:09;;;;;;;6.13;4.00;;;;;;;;;;5023166;28;20045;-83
2023/07/24 08:17:35;;;;;;;5.47;4.75;;;;;;;;;;5023425;28;20061;-83
2023/07/24 08:20:04;;;;;;;4.40;4.00;;;;;;;;;;5026467;28;20045;-81
2023/07/24 08:22:31;;;;;;;4.85;4.15;;;;;;;;;;5025024;28;20510;-83
2023/07/24 08:24:57;;;;;;;4.63;3.85;;;;;;;;;;5028182;28;20402;-82
2023/07/24 08:27:24;;;;;;;6.70;3.85;;;;;;;;;;5027058;28;21323;-83
2023/07/24 08:29:51;;;;;;;4.30;3.85;;;;;;;;;;5026454;28;20049;-82
2023/07/24 08:32:18;;;;;;;5.20;3.58;;;;;;;;;;5025261;28;20418;-82
2023/07/24 08:34:45;;;;;;;4.40;3.47;;;;;;;;;;5027523;28;20757;-82
2023/07/24 08:37:13;;;;;;;4.03;3.47;;;;;;;;;;5029101;28;20057;-82
2023/07/24 08:39:41;;;;;;;3.90;3.40;;;;;;;;;;5029125;28;20057;-82
2023/07/24 08:42:11;;;;;;;3.67;3.38;;;;;;;;;;5027004;28;20064;-82
2023/07/24 08:44:38;;;;;;;4.65;3.58;;;;;;;;;;5027045;28;20054;-83
2023/07/24 08:47:06;;;;;;;5.75;3.60;;;;;;;;;;5025648;28;20407;-82
2023/07/24 08:49:34;;;;;;;5.22;3.45;;;;;;;;;;5026854;28;20045;-82
2023/07/24 08:52:01;;;;;;;5.18;3.28;;;;;;;;;;5025977;28;20049;-83
2023/07/24 08:54:31;;;;;;;5.15;3.55;;;;;;;;;;5028185;28;20418;-81
2023/07/24 08:56:58;;;;;;;5.15;3.60;;;;;;;;;;5028050;28;20053;-82
2023/07/24 08:59:25;;;;;;;3.63;3.03;;;;;;;;;;5027005;28;20053;-82
2023/07/24 09:01:52;;;;;;;4.85;3.28;;;;;;;;;;5029776;28;20406;-80
2023/07/24 09:04:18;;;;;;;3.97;3.20;;;;;;;;;;5028671;28;20053;-84
2023/07/24 09:06:46;;;;;;;4.20;3.00;;;;;;;;;;5029819;28;20053;-85
2023/07/24 09:09:13;;;;;;;4.38;2.90;;;;;;;;;;5026314;28;20050;-84
2023/07/24 09:11:47;;;;;;;3.47;2.83;;;;;;;;;;5031306;28;20045;-85
2023/07/24 09:14:20;;;;;;;3.80;2.50;;;;;;;;;;5027460;28;20049;-82
2023/07/24 09:16:47;;;;;;;4.38;3.13;;;;;;;;;;5030980;28;20406;-80
2023/07/24 09:19:30;;;;;;;4.28;2.65;;;;;;;;;;5028927;28;20056;-81
2023/07/24 09:22:08;;;;;;;4.43;3.05;;;;;;;;;;5031825;28;20410;-83
2023/07/24 09:24:35;;;;;;;4.00;2.90;;;;;;;;;;5024858;28;20064;-82
2023/07/24 09:27:05;;;;;;;3.90;2.70;;;;;;;;;;5033492;28;20049;-84
2023/07/24 09:29:33;;;;;;;3.15;2.85;;;;;;;;;;5032339;28;20054;-83
2023/07/24 09:31:59;;;;;;;4.35;3.13;;;;;;;;;;5032715;28;20057;-84
2023/07/24 09:34:26;;;;;;;5.03;3.35;;;;;;;;;;5031575;28;20060;-81
2023/07/24 09:36:53;;;;;;;4.40;3.35;;;;;;;;;;5031834;28;20056;-82
2023/07/24 09:39:23;;;;;;;5.05;3.40;;;;;;;;;;5031419;28;20064;-82
2023/07/24 09:41:50;;;;;;;3.72;2.97;;;;;;;;;;5032582;28;20056;-81
2023/07/24 09:44:18;;;;;;;3.60;2.85;;;;;;;;;;5029199;28;20426;-82
2023/07/24 09:46:45;;;;;;;3.85;2.65;;;;;;;;;;5028184;28;20050;-84
2023/07/24 09:49:12;;;;;;;4.07;2.90;;;;;;;;;;5033100;28;20066;-82
2023/07/24 09:51:39;;;;;;;4.20;3.45;;;;;;;;;;5028286;28;20050;-85
2023/07/24 09:54:08;;;;;;;5.10;3.30;;;;;;;;;;5034493;28;20406;-85
2023/07/24 09:56:34;;;;;;;;;;;;;;;;;;5035408;28;20061;-87
2023/07/24 09:59:03;;;;;;;3.75;3.28;;;;;;;;;;5035337;28;19921;-80
2023/07/24 10:01:32;;;;;;;3.80;3.03;;;;;;;;;;5030306;28;20045;-84
2023/07/24 10:03:59;;;;;;;4.80;3.13;;;;;;;;;;5033307;28;20053;-85
2023/07/24 10:06:27;;;;;;;6.65;3.53;;;;;;;;;;5027840;28;20065;-84
2023/07/24 10:08:54;;;;;;;6.90;4.60;;;;;;;;;;5036792;28;20056;-83
2023/07/24 10:11:21;;;;;;;4.25;3.85;;;;;;;;;;5033255;28;20046;-79
2023/07/24 10:13:48;;;;;;;6.00;3.90;;;;;;;;;;5034878;28;20501;-79
2023/07/24 10:16:15;;;;;;;7.93;4.18;;;;;;;;;;5030089;28;20050;-79
2023/07/24 10:18:44;;;;;;;6.45;5.07;;;;;;;;;;5032716;28;20060;-79
2023/07/24 10:21:11;;;;;;;6.63;4.65;;;;;;;;;;5025614;28;20480;-79
2023/07/24 10:23:41;;;;;;;5.53;4.68;;;;;;;;;;5034487;28;20056;-79
2023/07/24 10:26:08;;;;;;;4.80;4.18;;;;;;;;;;5033799;28;20064;-80
2023/07/24 10:28:38;;;;;;;4.85;4.30;;;;;;;;;;5032292;28;20061;-81
2023/07/24 10:31:08;;;;;;;5.10;3.80;;;;;;;;;;5025698;28;20460;-81
2023/07/24 10:33:37;;;;;;;5.53;3.65;;;;;;;;;;5030465;28;20406;-82
2023/07/24 10:36:10;;;;;;;4.03;3.63;;;;;;;;;;5026454;28;20053;-80
2023/07/24 10:38:39;;;;;;;4.63;3.67;;;;;;;;;;5030123;28;20072;-83
2023/07/24 10:41:07;;;;;;;4.75;3.65;;;;;;;;;;5033388;28;20490;-81
2023/07/24 10:43:43;;;;;;;7.65;3.92;;;;;;;;;;5028764;28;20049;-78
2023/07/24 10:46:11;;;;;;;5.45;3.90;;;;;;;;;;5030232;28;20064;-77
2023/07/24 10:48:40;;;;;;;5.00;4.23;;;;;;;;;;5028222;28;20049;-78
2023/07/24 10:51:14;;;;;;;4.95;3.65;;;;;;;;;;5025892;28;20038;-80
2023/07/24 10:53:42;;;;;;;4.97;3.90;;;;;;;;;;5031898;28;20495;-80
2023/07/24 10:56:12;;;;;;;5.60;3.72;;;;;;;;;;5039582;28;20060;-81
2023/07/24 10:58:38;;;;;;;4.63;3.45;;;;;;;;;;5028070;28;20052;-83
2023/07/24 11:01:06;;;;;;;4.22;3.50;;;;;;;;;;5031261;28;20056;-83
2023/07/24 11:03:33;;;;;;;4.07;3.65;;;;;;;;;;5024789;28;20057;-81
2023/07/24 11:06:00;;;;;;;4.32;2.92;;;;;;;;;;5030920;28;20056;-83
2023/07/24 11:08:28;;;;;;;4.47;3.10;;;;;;;;;;5041497;28;20061;-81
2023/07/24 11:10:56;;;;;;;4.68;3.78;;;;;;;;;;5026892;28;20049;-82
2023/07/24 11:13:24;;;;;;;3.25;2.95;;;;;;;;;;5033236;28;20057;-82
2023/07/24 11:15:53;;;;;;;3.53;2.65;;;;;;;;;;5040479;28;20049;-80
2023/07/24 11:18:22;;;;;;;5.32;3.47;;;;;;;;;;5049542;28;20056;-81
2023/07/24 11:20:50;;;;;;;4.77;3.30;;;;;;;;;;5044390;28;20517;-80
2023/07/24 11:23:17;;;;;;;4.68;3.10;;;;;;;;;;5052964;28;20064;-79
2023/07/24 11:25:45;;;;;;;5.13;3.70;;;;;;;;;;5045123;28;20057;-78
2023/07/24 11:28:13;;;;;;;6.78;4.43;;;;;;;;;;5032929;28;20053;-78
2023/07/24 11:30:41;;;;;;;4.50;3.90;;;;;;;;;;5036440;28;20049;-82
2023/07/24 11:33:09;;;;;;;3.97;3.13;;;;;;;;;;5025022;28;20052;-80
2023/07/24 11:35:38;;;;;;;3.20;2.58;;;;;;;;;;5021433;28;20049;-81
2023/07/24 11:38:07;;;;;;;2.72;2.42;;;;;;;;;;5031946;28;20053;-82
2023/07/24 11:40:35;;;;;;;5.82;2.53;;;;;;;;;;5031804;28;20053;-81
2023/07/24 11:43:03;;;;;;;3.50;3.00;;;;;;;;;;5023430;28;20058;-81
2023/07/24 11:45:30;;;;;;;2.65;2.30;;;;;;;;;;5028736;28;20058;-82
2023/07/24 11:47:57;;;;;;;3.28;2.80;;;;;;;;;;5031980;28;20049;-83
2023/07/24 11:50:24;;;;;;;3.65;2.80;;;;;;;;;;5025758;28;20494;-83
2023/07/24 11:52:51;;;;;;;4.05;2.22;;;;;;;;;;5029472;28;20410;-83
2023/07/24 11:55:19;;;;;;;2.88;2.50;;;;;;;;;;5022134;28;20058;-83
2023/07/24 11:57:55;;;;;;;3.70;2.75;;;;;;;;;;5024385;28;20049;-82
2023/07/24 12:00:24;;;;;;;4.78;2.70;;;;;;;;;;5032379;28;20407;-82
2023/07/24 12:02:53;;;;;;;6.90;3.50;;;;;;;;;;5038436;28;20049;-80
2023/07/24 12:05:23;;;;;;;5.03;3.30;;;;;;;;;;5030264;28;20074;-80
2023/07/24 12:07:50;;;;;;;5.18;3.20;;;;;;;;;;5026001;28;20521;-81
2023/07/24 12:10:28;;;;;;;5.28;3.20;;;;;;;;;;5034112;28;20046;-81
2023/07/24 12:12:59;;;;;;;4.13;3.13;;;;;;;;;;5033937;28;20064;-79
2023/07/24 12:15:28;;;;;;;4.00;2.80;;;;;;;;;;5028492;28;20050;-81
2023/07/24 12:17:56;;;;;;;4.22;2.85;;;;;;;;;;5028337;28;20050;-80
2023/07/24 12:20:23;;;;;;;4.35;2.80;;;;;;;;;;5023425;28;20053;-82
2023/07/24 12:22:50;;;;;;;5.78;3.10;;;;;;;;;;5026900;28;20053;-82
2023/07/24 12:25:17;;;;;;;5.82;2.83;;;;;;;;;;5017373;28;20065;-82
2023/07/24 12:27:44;;;;;;;41.60;5.50;;;;;;;;;;5024640;28;20049;-82
2023/07/24 12:30:11;;;;;;;8.50;3.47;;;;;;;;;;5030349;28;20054;-78
2023/07/24 12:32:39;;;;;;;7.90;3.38;;;;;;;;;;5017428;28;20045;-78
2023/07/24 12:35:06;;;;;;;4.50;2.67;;;;;;;;;;5027384;28;20050;-79
2023/07/24 12:37:33;;;;;;;5.55;3.38;;;;;;;;;;5023550;28;20064;-82
2023/07/24 12:39:59;;;;;;;2.60;1.45;;;;;;;;;;5016381;28;20061;-82
2023/07/24 12:42:26;;;;;;;21.75;2.33;;;;;;;;;;5018517;28;20522;-78
2023/07/24 12:44:53;;;;;;;3.05;1.00;;;;;;;;;;5026311;28;20050;-79
2023/07/24 12:47:20;;;;;;;2.50;1.40;;;;;;;;;;5029940;28;20062;-78
2023/07/24 12:49:48;;;;;;;3.25;1.25;;;;;;;;;;5022464;28;20438;-81
2023/07/24 12:52:15;;;;;;;4.00;1.27;;;;;;;;;;5032268;28;20045;-81
2023/07/24 12:54:43;;;;;;;3.85;1.95;;;;;;;;;;5028998;28;20057;-85
2023/07/24 12:57:10;;;;;;;2.03;1.35;;;;;;;;;;5044395;28;20060;-80
2023/07/24 12:59:37;;;;;;;3.17;1.80;;;;;;;;;;5030577;28;20381;-80
2023/07/24 13:02:04;;;;;;;3.25;1.52;;;;;;;;;;5040658;28;20455;-81
2023/07/24 13:04:30;;;;;;;3.25;1.80;;;;;;;;;;5030198;28;20061;-78
2023/07/24 13:07:00;;;;;;;3.65;2.20;;;;;;;;;;5028313;28;20080;-84
2023/07/24 13:09:27;;;;;;;3.17;1.63;;;;;;;;;;5027397;28;20054;-83
2023/07/24 13:11:54;;;;;;;1.92;1.20;;;;;;;;;;5023671;28;20053;-83
2023/07/24 13:14:21;;;;;;;2.65;1.13;;;;;;;;;;5042997;28;20060;-81
2023/07/24 13:16:48;;;;;;;3.50;1.27;;;;;;;;;;5031203;28;20501;-78
2023/07/24 13:19:15;;;;;;;3.28;1.65;;;;;;;;;;5025097;28;20052;-82
2023/07/24 13:21:42;;;;;;;3.05;1.40;;;;;;;;;;5031019;28;20045;-82
2023/07/24 13:24:11;;;;;;;2.10;1.45;;;;;;;;;;5027030;28;20045;-87
2023/07/24 13:26:40;;;;;;;3.20;1.40;;;;;;;;;;5032320;28;20064;-84
2023/07/24 13:29:07;;;;;;;2.95;1.50;;;;;;;;;;5039292;28;20410;-84
2023/07/24 13:31:34;;;;;;;4.32;1.40;;;;;;;;;;5035192;28;20064;-84
2023/07/24 13:34:09;;;;;;;3.08;1.45;;;;;;;;;;5034393;28;20049;-83
2023/07/24 13:36:36;;;;;;;1.58;0.93;;;;;;;;;;5023657;28;20484;-84
2023/07/24 13:39:02;;;;;;;2.10;1.50;;;;;;;;;;5029640;28;20061;-81
2023/07/24 13:41:31;;;;;;;3.13;1.63;;;;;;;;;;5041657;28;20064;-81
2023/07/24 13:43:58;;;;;;;2.85;1.40;;;;;;;;;;5030773;28;20406;-78
2023/07/24 13:46:25;;;;;;;2.13;1.50;;;;;;;;;;5036154;28;20060;-80
2023/07/24 13:48:51;;;;;;;2.85;1.52;;;;;;;;;;5034331;28;20049;-81
2023/07/24 13:51:18;;;;;;;2.63;1.45;;;;;;;;;;5030034;28;20049;-80
2023/07/24 13:53:48;;;;;;;3.08;1.50;;;;;;;;;;5031611;28;20049;-82
2023/07/24 13:56:15;;;;;;;2.78;1.80;;;;;;;;;;5043244;28;20080;-82
2023/07/24 13:58:43;;;;;;;1.92;1.33;;;;;;;;;;5026002;28;20053;-79
2023/07/24 14:01:10;;;;;;;2.25;1.70;;;;;;;;;;5026999;28;20053;-79
2023/07/24 14:03:37;;;;;;;2.38;1.60;;;;;;;;;;5026032;28;20056;-83
2023/07/24 14:06:04;;;;;;;2.83;1.70;;;;;;;;;;5033525;28;20601;-84
2023/07/24 14:08:31;;;;;;;2.20;1.60;;;;;;;;;;5033673;28;20069;-83
2023/07/24 14:10:58;;;;;;;4.70;1.80;;;;;;;;;;5018619;28;20046;-84
2023/07/24 14:13:25;;;;;;;4.00;1.77;;;;;;;;;;5036387;28;20053;-84
2023/07/24 14:15:53;;;;;;;1.92;1.38;;;;;;;;;;5028916;28;20053;-83
2023/07/24 14:18:20;;;;;;;2.03;1.60;;;;;;;;;;5031142;28;20057;-83
2023/07/24 14:20:47;;;;;;;2.72;1.70;;;;;;;;;;5033987;28;20064;-82
2023/07/24 14:23:15;;;;;;;3.92;2.58;;;;;;;;;;5030761;28;20046;-82
2023/07/24 14:25:42;;;;;;;2.00;1.50;;;;;;;;;;5019082;28;20050;-82
2023/07/24 14:28:09;;;;;;;2.45;1.50;;;;;;;;;;5028667;28;20056;-83
2023/07/24 14:30:36;;;;;;;3.13;1.70;;;;;;;;;;5044221;28;20041;-82
2023/07/24 14:33:04;;;;;;;2.30;1.40;;;;;;;;;;5020242;28;20471;-79
2023/07/24 14:35:31;;;;;;;2.27;1.57;;;;;;;;;;5033881;28;20049;-81
2023/07/24 14:37:57;;;;;;;5.88;1.70;;;;;;;;;;5032519;28;20057;-80
2023/07/24 14:40:24;;;;;;;3.28;1.70;;;;;;;;;;5032578;28;20068;-82
2023/07/24 14:42:51;;;;;;;2.58;1.63;;;;;;;;;;5032890;28;20046;-85
2023/07/24 14:45:18;;;;;;;2.80;1.98;;;;;;;;;;5017293;28;20058;-79